sensor_id;sensor_type;location;lat;lon;timestamp;P1;durP1;ratioP1;P2;durP2;ratioP2
10517;SDS011;5307;42.548;22.968;2023-03-14T00:00:25;12.63;;;6.43;;
10517;SDS011;5307;42.548;22.968;2023-03-14T00:02:53;10.98;;;5.80;;
10517;SDS011;5307;42.548;22.968;2023-03-14T00:05:20;12.50;;;6.38;;
10517;SDS011;5307;42.548;22.968;2023-03-14T00:07:47;16.05;;;6.70;;
10517;SDS011;5307;42.548;22.968;2023-03-14T00:10:14;16.88;;;9.80;;
10517;SDS011;5307;42.548;22.968;2023-03-14T00:12:41;18.60;;;10.40;;
10517;SDS011;5307;42.548;22.968;2023-03-14T00:15:09;21.10;;;10.02;;
10517;SDS011;5307;42.548;22.968;2023-03-14T00:17:36;22.75;;;11.73;;
10517;SDS011;5307;42.548;22.968;2023-03-14T00:20:06;22.88;;;12.50;;
10517;SDS011;5307;42.548;22.968;2023-03-14T00:22:35;18.92;;;9.30;;
10517;SDS011;5307;42.548;22.968;2023-03-14T00:25:02;15.13;;;7.95;;
10517;SDS011;5307;42.548;22.968;2023-03-14T00:27:30;17.85;;;9.02;;
10517;SDS011;5307;42.548;22.968;2023-03-14T00:29:57;17.27;;;8.82;;
10517;SDS011;5307;42.548;22.968;2023-03-14T00:32:24;17.95;;;9.00;;
10517;SDS011;5307;42.548;22.968;2023-03-14T00:34:51;19.77;;;9.20;;
10517;SDS011;5307;42.548;22.968;2023-03-14T00:37:19;21.48;;;10.10;;
10517;SDS011;5307;42.548;22.968;2023-03-14T00:39:46;23.45;;;10.43;;
10517;SDS011;5307;42.548;22.968;2023-03-14T00:42:13;19.65;;;9.77;;
10517;SDS011;5307;42.548;22.968;2023-03-14T00:44:40;19.30;;;8.00;;
10517;SDS011;5307;42.548;22.968;2023-03-14T00:47:07;23.33;;;10.68;;
10517;SDS011;5307;42.548;22.968;2023-03-14T00:49:34;21.13;;;11.38;;
10517;SDS011;5307;42.548;22.968;2023-03-14T00:52:00;26.10;;;10.55;;
10517;SDS011;5307;42.548;22.968;2023-03-14T00:54:29;28.92;;;13.52;;
10517;SDS011;5307;42.548;22.968;2023-03-14T00:56:56;35.03;;;16.95;;
10517;SDS011;5307;42.548;22.968;2023-03-14T00:59:22;37.00;;;18.02;;
10517;SDS011;5307;42.548;22.968;2023-03-14T01:01:49;33.35;;;16.65;;
10517;SDS011;5307;42.548;22.968;2023-03-14T01:04:16;34.20;;;18.27;;
10517;SDS011;5307;42.548;22.968;2023-03-14T01:06:43;35.80;;;18.27;;
10517;SDS011;5307;42.548;22.968;2023-03-14T01:09:09;32.05;;;14.88;;
10517;SDS011;5307;42.548;22.968;2023-03-14T01:11:37;27.80;;;15.15;;
10517;SDS011;5307;42.548;22.968;2023-03-14T01:14:04;32.05;;;14.75;;
10517;SDS011;5307;42.548;22.968;2023-03-14T01:16:32;25.02;;;12.02;;
10517;SDS011;5307;42.548;22.968;2023-03-14T01:19:00;21.83;;;11.30;;
10517;SDS011;5307;42.548;22.968;2023-03-14T01:21:28;19.70;;;11.57;;
10517;SDS011;5307;42.548;22.968;2023-03-14T01:23:57;19.00;;;11.15;;
10517;SDS011;5307;42.548;22.968;2023-03-14T01:26:26;17.75;;;9.82;;
10517;SDS011;5307;42.548;22.968;2023-03-14T01:28:56;15.88;;;8.75;;
10517;SDS011;5307;42.548;22.968;2023-03-14T01:31:24;17.60;;;10.00;;
10517;SDS011;5307;42.548;22.968;2023-03-14T01:33:51;16.15;;;8.98;;
10517;SDS011;5307;42.548;22.968;2023-03-14T01:36:18;12.98;;;7.10;;
10517;SDS011;5307;42.548;22.968;2023-03-14T01:38:46;16.20;;;8.60;;
10517;SDS011;5307;42.548;22.968;2023-03-14T01:41:14;14.07;;;6.95;;
10517;SDS011;5307;42.548;22.968;2023-03-14T01:43:42;12.63;;;7.13;;
10517;SDS011;5307;42.548;22.968;2023-03-14T01:46:16;17.45;;;6.82;;
10517;SDS011;5307;42.548;22.968;2023-03-14T01:49:00;14.45;;;7.30;;
10517;SDS011;5307;42.548;22.968;2023-03-14T01:51:34;17.23;;;7.82;;
10517;SDS011;5307;42.548;22.968;2023-03-14T01:54:09;15.95;;;7.75;;
10517;SDS011;5307;42.548;22.968;2023-03-14T01:56:38;14.20;;;7.25;;
10517;SDS011;5307;42.548;22.968;2023-03-14T01:59:09;13.38;;;6.80;;
10517;SDS011;5307;42.548;22.968;2023-03-14T02:01:38;14.40;;;6.35;;
10517;SDS011;5307;42.548;22.968;2023-03-14T02:04:09;21.85;;;9.20;;
10517;SDS011;5307;42.548;22.968;2023-03-14T02:06:40;15.23;;;8.30;;
10517;SDS011;5307;42.548;22.968;2023-03-14T02:09:13;24.73;;;8.70;;
10517;SDS011;5307;42.548;22.968;2023-03-14T02:11:40;15.07;;;7.10;;
10517;SDS011;5307;42.548;22.968;2023-03-14T02:14:07;19.13;;;6.78;;
10517;SDS011;5307;42.548;22.968;2023-03-14T02:16:41;21.20;;;9.07;;
10517;SDS011;5307;42.548;22.968;2023-03-14T02:19:08;26.27;;;11.02;;
10517;SDS011;5307;42.548;22.968;2023-03-14T02:21:39;26.02;;;9.20;;
10517;SDS011;5307;42.548;22.968;2023-03-14T02:24:17;23.08;;;11.43;;
10517;SDS011;5307;42.548;22.968;2023-03-14T02:27:03;24.25;;;12.55;;
10517;SDS011;5307;42.548;22.968;2023-03-14T02:29:32;28.45;;;12.85;;
10517;SDS011;5307;42.548;22.968;2023-03-14T02:32:01;22.10;;;11.43;;
10517;SDS011;5307;42.548;22.968;2023-03-14T02:34:28;28.48;;;11.90;;
10517;SDS011;5307;42.548;22.968;2023-03-14T02:36:56;19.80;;;10.63;;
10517;SDS011;5307;42.548;22.968;2023-03-14T02:39:24;21.67;;;10.07;;
10517;SDS011;5307;42.548;22.968;2023-03-14T02:41:58;21.00;;;9.48;;
10517;SDS011;5307;42.548;22.968;2023-03-14T02:44:26;22.02;;;8.93;;
10517;SDS011;5307;42.548;22.968;2023-03-14T02:46:53;17.38;;;7.88;;
10517;SDS011;5307;42.548;22.968;2023-03-14T02:49:20;20.90;;;8.70;;
10517;SDS011;5307;42.548;22.968;2023-03-14T02:51:47;21.73;;;9.45;;
10517;SDS011;5307;42.548;22.968;2023-03-14T02:54:20;26.35;;;11.45;;
10517;SDS011;5307;42.548;22.968;2023-03-14T02:56:47;23.58;;;9.25;;
10517;SDS011;5307;42.548;22.968;2023-03-14T02:59:14;26.95;;;10.07;;
10517;SDS011;5307;42.548;22.968;2023-03-14T03:01:42;22.88;;;10.18;;
10517;SDS011;5307;42.548;22.968;2023-03-14T03:04:09;36.17;;;13.85;;
10517;SDS011;5307;42.548;22.968;2023-03-14T03:06:35;35.75;;;13.10;;
10517;SDS011;5307;42.548;22.968;2023-03-14T03:09:02;23.85;;;11.68;;
10517;SDS011;5307;42.548;22.968;2023-03-14T03:11:29;25.15;;;12.25;;
10517;SDS011;5307;42.548;22.968;2023-03-14T03:13:56;26.52;;;11.50;;
10517;SDS011;5307;42.548;22.968;2023-03-14T03:16:23;25.92;;;10.55;;
10517;SDS011;5307;42.548;22.968;2023-03-14T03:18:51;24.65;;;10.57;;
10517;SDS011;5307;42.548;22.968;2023-03-14T03:21:18;26.23;;;12.52;;
10517;SDS011;5307;42.548;22.968;2023-03-14T03:23:48;43.10;;;16.70;;
10517;SDS011;5307;42.548;22.968;2023-03-14T03:26:15;34.00;;;14.63;;
10517;SDS011;5307;42.548;22.968;2023-03-14T03:28:42;33.00;;;16.20;;
10517;SDS011;5307;42.548;22.968;2023-03-14T03:31:09;21.08;;;11.63;;
10517;SDS011;5307;42.548;22.968;2023-03-14T03:33:36;23.42;;;11.70;;
10517;SDS011;5307;42.548;22.968;2023-03-14T03:36:05;24.33;;;11.65;;
10517;SDS011;5307;42.548;22.968;2023-03-14T03:38:33;26.63;;;11.68;;
10517;SDS011;5307;42.548;22.968;2023-03-14T03:41:01;29.55;;;12.68;;
10517;SDS011;5307;42.548;22.968;2023-03-14T03:43:29;24.90;;;11.25;;
10517;SDS011;5307;42.548;22.968;2023-03-14T03:45:56;28.48;;;10.52;;
10517;SDS011;5307;42.548;22.968;2023-03-14T03:48:23;26.88;;;11.68;;
10517;SDS011;5307;42.548;22.968;2023-03-14T03:50:50;18.60;;;10.02;;
10517;SDS011;5307;42.548;22.968;2023-03-14T03:53:18;19.02;;;10.23;;
10517;SDS011;5307;42.548;22.968;2023-03-14T03:55:45;24.17;;;10.63;;
10517;SDS011;5307;42.548;22.968;2023-03-14T03:58:11;28.58;;;13.35;;
10517;SDS011;5307;42.548;22.968;2023-03-14T04:00:38;22.58;;;10.98;;
10517;SDS011;5307;42.548;22.968;2023-03-14T04:03:05;26.60;;;10.57;;
10517;SDS011;5307;42.548;22.968;2023-03-14T04:05:32;26.88;;;10.02;;
10517;SDS011;5307;42.548;22.968;2023-03-14T04:08:00;24.73;;;8.63;;
10517;SDS011;5307;42.548;22.968;2023-03-14T04:10:28;20.38;;;9.35;;
10517;SDS011;5307;42.548;22.968;2023-03-14T04:12:55;23.48;;;13.70;;
10517;SDS011;5307;42.548;22.968;2023-03-14T04:15:22;22.40;;;14.73;;
10517;SDS011;5307;42.548;22.968;2023-03-14T04:17:48;25.63;;;15.32;;
10517;SDS011;5307;42.548;22.968;2023-03-14T04:20:15;29.00;;;16.98;;
10517;SDS011;5307;42.548;22.968;2023-03-14T04:22:42;31.65;;;16.55;;
10517;SDS011;5307;42.548;22.968;2023-03-14T04:25:09;31.88;;;17.17;;
10517;SDS011;5307;42.548;22.968;2023-03-14T04:27:38;33.58;;;18.48;;
10517;SDS011;5307;42.548;22.968;2023-03-14T04:30:06;28.98;;;17.25;;
10517;SDS011;5307;42.548;22.968;2023-03-14T04:32:33;35.85;;;17.88;;
10517;SDS011;5307;42.548;22.968;2023-03-14T04:35:00;31.52;;;17.17;;
10517;SDS011;5307;42.548;22.968;2023-03-14T04:37:27;28.33;;;15.30;;
10517;SDS011;5307;42.548;22.968;2023-03-14T04:39:54;24.58;;;12.75;;
10517;SDS011;5307;42.548;22.968;2023-03-14T04:42:21;33.67;;;12.73;;
10517;SDS011;5307;42.548;22.968;2023-03-14T04:44:49;28.92;;;12.60;;
10517;SDS011;5307;42.548;22.968;2023-03-14T04:47:16;32.90;;;15.65;;
10517;SDS011;5307;42.548;22.968;2023-03-14T04:49:42;28.80;;;15.00;;
10517;SDS011;5307;42.548;22.968;2023-03-14T04:52:09;32.42;;;17.52;;
10517;SDS011;5307;42.548;22.968;2023-03-14T04:54:36;30.42;;;16.90;;
10517;SDS011;5307;42.548;22.968;2023-03-14T04:57:03;40.53;;;18.30;;
10517;SDS011;5307;42.548;22.968;2023-03-14T04:59:30;32.78;;;17.60;;
10517;SDS011;5307;42.548;22.968;2023-03-14T05:01:58;35.85;;;16.05;;
10517;SDS011;5307;42.548;22.968;2023-03-14T05:04:25;34.72;;;16.17;;
10517;SDS011;5307;42.548;22.968;2023-03-14T05:06:51;34.72;;;14.02;;
10517;SDS011;5307;42.548;22.968;2023-03-14T05:09:18;35.55;;;16.08;;
10517;SDS011;5307;42.548;22.968;2023-03-14T05:11:45;32.22;;;15.45;;
10517;SDS011;5307;42.548;22.968;2023-03-14T05:14:12;28.10;;;13.35;;
10517;SDS011;5307;42.548;22.968;2023-03-14T05:16:39;25.88;;;13.98;;
10517;SDS011;5307;42.548;22.968;2023-03-14T05:19:07;32.08;;;14.05;;
10517;SDS011;5307;42.548;22.968;2023-03-14T05:21:34;27.75;;;13.80;;
10517;SDS011;5307;42.548;22.968;2023-03-14T05:24:02;21.30;;;13.02;;
10517;SDS011;5307;42.548;22.968;2023-03-14T05:26:29;19.33;;;11.70;;
10517;SDS011;5307;42.548;22.968;2023-03-14T05:28:55;27.70;;;12.85;;
10517;SDS011;5307;42.548;22.968;2023-03-14T05:31:22;28.27;;;13.35;;
10517;SDS011;5307;42.548;22.968;2023-03-14T05:33:49;28.65;;;14.20;;
10517;SDS011;5307;42.548;22.968;2023-03-14T05:36:17;30.40;;;15.85;;
10517;SDS011;5307;42.548;22.968;2023-03-14T05:38:44;32.38;;;16.92;;
10517;SDS011;5307;42.548;22.968;2023-03-14T05:41:11;34.53;;;16.70;;
10517;SDS011;5307;42.548;22.968;2023-03-14T05:43:38;38.78;;;17.52;;
10517;SDS011;5307;42.548;22.968;2023-03-14T05:46:05;40.30;;;18.95;;
10517;SDS011;5307;42.548;22.968;2023-03-14T05:48:32;39.72;;;19.70;;
10517;SDS011;5307;42.548;22.968;2023-03-14T05:50:58;42.50;;;20.70;;
10517;SDS011;5307;42.548;22.968;2023-03-14T05:53:27;39.05;;;21.10;;
10517;SDS011;5307;42.548;22.968;2023-03-14T05:55:56;37.97;;;20.73;;
10517;SDS011;5307;42.548;22.968;2023-03-14T05:58:23;42.10;;;21.67;;
10517;SDS011;5307;42.548;22.968;2023-03-14T06:00:50;39.40;;;19.92;;
10517;SDS011;5307;42.548;22.968;2023-03-14T06:03:17;47.08;;;20.70;;
10517;SDS011;5307;42.548;22.968;2023-03-14T06:05:44;41.97;;;21.10;;
10517;SDS011;5307;42.548;22.968;2023-03-14T06:08:11;35.83;;;17.02;;
10517;SDS011;5307;42.548;22.968;2023-03-14T06:10:39;38.92;;;17.80;;
10517;SDS011;5307;42.548;22.968;2023-03-14T06:13:07;27.00;;;15.90;;
10517;SDS011;5307;42.548;22.968;2023-03-14T06:15:33;33.05;;;15.73;;
10517;SDS011;5307;42.548;22.968;2023-03-14T06:18:01;33.25;;;17.42;;
10517;SDS011;5307;42.548;22.968;2023-03-14T06:20:27;32.78;;;16.83;;
10517;SDS011;5307;42.548;22.968;2023-03-14T06:22:54;37.83;;;18.50;;
10517;SDS011;5307;42.548;22.968;2023-03-14T06:25:21;26.35;;;14.20;;
10517;SDS011;5307;42.548;22.968;2023-03-14T06:27:49;27.45;;;15.10;;
10517;SDS011;5307;42.548;22.968;2023-03-14T06:30:16;28.35;;;16.02;;
10517;SDS011;5307;42.548;22.968;2023-03-14T06:32:43;41.67;;;21.40;;
10517;SDS011;5307;42.548;22.968;2023-03-14T06:35:10;42.53;;;21.40;;
10517;SDS011;5307;42.548;22.968;2023-03-14T06:37:37;52.05;;;25.70;;
10517;SDS011;5307;42.548;22.968;2023-03-14T06:40:04;41.50;;;21.17;;
10517;SDS011;5307;42.548;22.968;2023-03-14T06:42:32;27.48;;;15.60;;
10517;SDS011;5307;42.548;22.968;2023-03-14T06:45:01;19.98;;;10.98;;
10517;SDS011;5307;42.548;22.968;2023-03-14T06:47:29;19.73;;;10.63;;
10517;SDS011;5307;42.548;22.968;2023-03-14T06:49:56;30.48;;;14.13;;
10517;SDS011;5307;42.548;22.968;2023-03-14T06:52:22;18.15;;;11.23;;
10517;SDS011;5307;42.548;22.968;2023-03-14T06:54:49;16.70;;;9.75;;
10517;SDS011;5307;42.548;22.968;2023-03-14T06:57:16;20.02;;;10.55;;
10517;SDS011;5307;42.548;22.968;2023-03-14T06:59:43;22.02;;;12.90;;
10517;SDS011;5307;42.548;22.968;2023-03-14T07:02:11;23.13;;;13.68;;
10517;SDS011;5307;42.548;22.968;2023-03-14T07:04:38;26.02;;;14.30;;
10517;SDS011;5307;42.548;22.968;2023-03-14T07:07:05;29.92;;;14.43;;
10517;SDS011;5307;42.548;22.968;2023-03-14T07:09:32;30.02;;;13.45;;
10517;SDS011;5307;42.548;22.968;2023-03-14T07:12:00;21.63;;;10.43;;
10517;SDS011;5307;42.548;22.968;2023-03-14T07:14:28;19.45;;;11.15;;
10517;SDS011;5307;42.548;22.968;2023-03-14T07:16:55;26.67;;;11.10;;
10517;SDS011;5307;42.548;22.968;2023-03-14T07:19:23;24.65;;;12.60;;
10517;SDS011;5307;42.548;22.968;2023-03-14T07:21:50;20.58;;;11.23;;
10517;SDS011;5307;42.548;22.968;2023-03-14T07:24:17;22.25;;;11.30;;
10517;SDS011;5307;42.548;22.968;2023-03-14T07:26:44;19.85;;;11.32;;
10517;SDS011;5307;42.548;22.968;2023-03-14T07:29:11;25.00;;;12.60;;
10517;SDS011;5307;42.548;22.968;2023-03-14T07:31:37;20.23;;;12.57;;
10517;SDS011;5307;42.548;22.968;2023-03-14T07:34:04;21.15;;;12.63;;
10517;SDS011;5307;42.548;22.968;2023-03-14T07:36:32;26.45;;;11.98;;
10517;SDS011;5307;42.548;22.968;2023-03-14T07:38:59;21.33;;;12.18;;
10517;SDS011;5307;42.548;22.968;2023-03-14T07:41:26;26.88;;;12.68;;
10517;SDS011;5307;42.548;22.968;2023-03-14T07:43:53;19.42;;;12.07;;
10517;SDS011;5307;42.548;22.968;2023-03-14T07:46:19;26.05;;;11.90;;
10517;SDS011;5307;42.548;22.968;2023-03-14T07:48:46;20.20;;;9.18;;
10517;SDS011;5307;42.548;22.968;2023-03-14T07:51:13;13.10;;;8.35;;
10517;SDS011;5307;42.548;22.968;2023-03-14T07:53:41;17.88;;;9.38;;
10517;SDS011;5307;42.548;22.968;2023-03-14T07:56:09;18.35;;;8.57;;
10517;SDS011;5307;42.548;22.968;2023-03-14T07:58:36;14.90;;;8.50;;
10517;SDS011;5307;42.548;22.968;2023-03-14T08:01:02;15.05;;;8.48;;
10517;SDS011;5307;42.548;22.968;2023-03-14T08:03:30;13.50;;;7.43;;
10517;SDS011;5307;42.548;22.968;2023-03-14T08:05:56;14.95;;;6.38;;
10517;SDS011;5307;42.548;22.968;2023-03-14T08:08:23;14.15;;;5.93;;
10517;SDS011;5307;42.548;22.968;2023-03-14T08:10:51;20.88;;;8.15;;
10517;SDS011;5307;42.548;22.968;2023-03-14T08:13:18;12.13;;;5.75;;
10517;SDS011;5307;42.548;22.968;2023-03-14T08:15:47;11.88;;;5.28;;
10517;SDS011;5307;42.548;22.968;2023-03-14T08:18:14;21.10;;;6.22;;
10517;SDS011;5307;42.548;22.968;2023-03-14T08:20:41;24.77;;;6.72;;
10517;SDS011;5307;42.548;22.968;2023-03-14T08:23:08;13.75;;;6.47;;
10517;SDS011;5307;42.548;22.968;2023-03-14T08:25:35;12.63;;;5.40;;
10517;SDS011;5307;42.548;22.968;2023-03-14T08:28:03;13.05;;;5.72;;
10517;SDS011;5307;42.548;22.968;2023-03-14T08:30:30;13.82;;;6.00;;
10517;SDS011;5307;42.548;22.968;2023-03-14T08:32:57;16.48;;;5.72;;
10517;SDS011;5307;42.548;22.968;2023-03-14T08:35:24;17.52;;;5.88;;
10517;SDS011;5307;42.548;22.968;2023-03-14T08:37:51;12.65;;;5.75;;
10517;SDS011;5307;42.548;22.968;2023-03-14T08:40:18;13.60;;;5.60;;
10517;SDS011;5307;42.548;22.968;2023-03-14T08:42:45;11.77;;;5.97;;
10517;SDS011;5307;42.548;22.968;2023-03-14T08:45:14;9.52;;;4.90;;
10517;SDS011;5307;42.548;22.968;2023-03-14T08:47:42;10.30;;;5.15;;
10517;SDS011;5307;42.548;22.968;2023-03-14T08:50:10;9.32;;;4.70;;
10517;SDS011;5307;42.548;22.968;2023-03-14T08:52:38;10.50;;;5.40;;
10517;SDS011;5307;42.548;22.968;2023-03-14T08:55:06;8.05;;;5.53;;
10517;SDS011;5307;42.548;22.968;2023-03-14T08:57:34;15.98;;;5.55;;
10517;SDS011;5307;42.548;22.968;2023-03-14T09:00:02;9.02;;;5.25;;
10517;SDS011;5307;42.548;22.968;2023-03-14T09:02:37;9.98;;;5.30;;
10517;SDS011;5307;42.548;22.968;2023-03-14T09:05:04;22.90;;;7.28;;
10517;SDS011;5307;42.548;22.968;2023-03-14T09:07:31;8.52;;;4.97;;
10517;SDS011;5307;42.548;22.968;2023-03-14T09:09:58;9.95;;;4.65;;
10517;SDS011;5307;42.548;22.968;2023-03-14T09:12:25;10.80;;;5.78;;
10517;SDS011;5307;42.548;22.968;2023-03-14T09:14:51;13.40;;;8.10;;
10517;SDS011;5307;42.548;22.968;2023-03-14T09:17:18;9.63;;;4.70;;
10517;SDS011;5307;42.548;22.968;2023-03-14T09:19:46;14.90;;;5.65;;
10517;SDS011;5307;42.548;22.968;2023-03-14T09:22:13;6.00;;;4.72;;
10517;SDS011;5307;42.548;22.968;2023-03-14T09:24:40;7.40;;;4.13;;
10517;SDS011;5307;42.548;22.968;2023-03-14T09:27:07;11.45;;;5.15;;
10517;SDS011;5307;42.548;22.968;2023-03-14T09:29:34;8.00;;;5.60;;
10517;SDS011;5307;42.548;22.968;2023-03-14T09:32:01;13.52;;;5.72;;
10517;SDS011;5307;42.548;22.968;2023-03-14T09:34:28;15.98;;;4.63;;
10517;SDS011;5307;42.548;22.968;2023-03-14T09:36:56;10.63;;;4.60;;
10517;SDS011;5307;42.548;22.968;2023-03-14T09:39:23;10.02;;;4.55;;
10517;SDS011;5307;42.548;22.968;2023-03-14T09:41:51;11.48;;;5.50;;
10517;SDS011;5307;42.548;22.968;2023-03-14T09:44:22;8.18;;;4.00;;
10517;SDS011;5307;42.548;22.968;2023-03-14T09:46:53;13.93;;;4.53;;
10517;SDS011;5307;42.548;22.968;2023-03-14T09:49:23;15.75;;;4.32;;
10517;SDS011;5307;42.548;22.968;2023-03-14T09:51:54;13.18;;;4.65;;
10517;SDS011;5307;42.548;22.968;2023-03-14T09:54:29;10.27;;;4.97;;
10517;SDS011;5307;42.548;22.968;2023-03-14T09:56:58;11.57;;;4.63;;
10517;SDS011;5307;42.548;22.968;2023-03-14T09:59:25;14.27;;;5.53;;
10517;SDS011;5307;42.548;22.968;2023-03-14T10:01:55;10.32;;;4.55;;
10517;SDS011;5307;42.548;22.968;2023-03-14T10:04:24;8.20;;;4.47;;
10517;SDS011;5307;42.548;22.968;2023-03-14T10:06:52;10.18;;;4.30;;
10517;SDS011;5307;42.548;22.968;2023-03-14T10:13:10;9.75;;;4.45;;
10517;SDS011;5307;42.548;22.968;2023-03-14T10:15:41;8.25;;;4.82;;
10517;SDS011;5307;42.548;22.968;2023-03-14T10:18:14;12.05;;;4.40;;
10517;SDS011;5307;42.548;22.968;2023-03-14T10:20:42;6.80;;;3.50;;
10517;SDS011;5307;42.548;22.968;2023-03-14T10:23:23;11.70;;;4.32;;
10517;SDS011;5307;42.548;22.968;2023-03-14T10:26:01;7.35;;;3.80;;
10517;SDS011;5307;42.548;22.968;2023-03-14T10:28:33;17.10;;;3.72;;
10517;SDS011;5307;42.548;22.968;2023-03-14T10:31:04;10.27;;;4.60;;
10517;SDS011;5307;42.548;22.968;2023-03-14T10:33:32;12.43;;;4.05;;
10517;SDS011;5307;42.548;22.968;2023-03-14T10:36:01;8.20;;;3.63;;
10517;SDS011;5307;42.548;22.968;2023-03-14T10:38:30;6.10;;;3.45;;
10517;SDS011;5307;42.548;22.968;2023-03-14T10:40:58;8.93;;;4.35;;
10517;SDS011;5307;42.548;22.968;2023-03-14T10:43:25;9.25;;;3.92;;
10517;SDS011;5307;42.548;22.968;2023-03-14T10:45:58;16.73;;;5.55;;
10517;SDS011;5307;42.548;22.968;2023-03-14T10:48:31;9.95;;;4.50;;
10517;SDS011;5307;42.548;22.968;2023-03-14T10:51:02;6.90;;;4.15;;
10517;SDS011;5307;42.548;22.968;2023-03-14T10:53:39;8.50;;;3.15;;
10517;SDS011;5307;42.548;22.968;2023-03-14T10:56:13;8.65;;;3.60;;
10517;SDS011;5307;42.548;22.968;2023-03-14T10:58:51;10.05;;;3.72;;
10517;SDS011;5307;42.548;22.968;2023-03-14T11:01:26;8.45;;;4.05;;
10517;SDS011;5307;42.548;22.968;2023-03-14T11:04:05;9.85;;;3.47;;
10517;SDS011;5307;42.548;22.968;2023-03-14T11:06:44;5.03;;;3.65;;
10517;SDS011;5307;42.548;22.968;2023-03-14T11:09:18;16.30;;;6.85;;
10517;SDS011;5307;42.548;22.968;2023-03-14T11:11:56;7.38;;;2.95;;
10517;SDS011;5307;42.548;22.968;2023-03-14T11:14:31;23.95;;;11.45;;
10517;SDS011;5307;42.548;22.968;2023-03-14T11:17:07;7.60;;;3.88;;
10517;SDS011;5307;42.548;22.968;2023-03-14T11:19:42;5.07;;;3.00;;
10517;SDS011;5307;42.548;22.968;2023-03-14T11:22:20;7.95;;;3.55;;
10517;SDS011;5307;42.548;22.968;2023-03-14T11:24:53;7.78;;;3.60;;
10517;SDS011;5307;42.548;22.968;2023-03-14T11:27:35;4.97;;;2.90;;
10517;SDS011;5307;42.548;22.968;2023-03-14T11:30:13;7.65;;;3.63;;
10517;SDS011;5307;42.548;22.968;2023-03-14T11:32:48;7.35;;;3.65;;
10517;SDS011;5307;42.548;22.968;2023-03-14T11:35:24;8.02;;;3.40;;
10517;SDS011;5307;42.548;22.968;2023-03-14T11:37:55;7.20;;;2.95;;
10517;SDS011;5307;42.548;22.968;2023-03-14T11:40:27;8.90;;;3.05;;
10517;SDS011;5307;42.548;22.968;2023-03-14T11:42:56;6.25;;;2.75;;
10517;SDS011;5307;42.548;22.968;2023-03-14T11:45:32;9.85;;;3.25;;
10517;SDS011;5307;42.548;22.968;2023-03-14T11:50:57;5.55;;;3.17;;
10517;SDS011;5307;42.548;22.968;2023-03-14T11:53:37;11.10;;;4.18;;
10517;SDS011;5307;42.548;22.968;2023-03-14T11:56:14;6.88;;;3.28;;
10517;SDS011;5307;42.548;22.968;2023-03-14T11:58:51;8.60;;;3.10;;
10517;SDS011;5307;42.548;22.968;2023-03-14T12:01:25;9.55;;;3.58;;
10517;SDS011;5307;42.548;22.968;2023-03-14T12:03:59;9.57;;;3.05;;
10517;SDS011;5307;42.548;22.968;2023-03-14T12:06:34;6.22;;;2.60;;
10517;SDS011;5307;42.548;22.968;2023-03-14T12:09:07;6.70;;;2.80;;
10517;SDS011;5307;42.548;22.968;2023-03-14T12:11:38;9.15;;;3.15;;
10517;SDS011;5307;42.548;22.968;2023-03-14T12:14:22;11.60;;;3.90;;
10517;SDS011;5307;42.548;22.968;2023-03-14T12:16:53;4.80;;;2.50;;
10517;SDS011;5307;42.548;22.968;2023-03-14T12:19:28;9.55;;;3.58;;
10517;SDS011;5307;42.548;22.968;2023-03-14T12:21:58;6.10;;;3.90;;
10517;SDS011;5307;42.548;22.968;2023-03-14T12:24:33;11.38;;;3.78;;
10517;SDS011;5307;42.548;22.968;2023-03-14T12:27:02;8.23;;;2.80;;
10517;SDS011;5307;42.548;22.968;2023-03-14T12:29:31;6.05;;;2.83;;
10517;SDS011;5307;42.548;22.968;2023-03-14T12:32:21;6.90;;;3.90;;
10517;SDS011;5307;42.548;22.968;2023-03-14T12:34:51;5.57;;;3.70;;
10517;SDS011;5307;42.548;22.968;2023-03-14T12:37:23;10.40;;;5.40;;
10517;SDS011;5307;42.548;22.968;2023-03-14T12:39:59;11.32;;;4.53;;
10517;SDS011;5307;42.548;22.968;2023-03-14T12:42:38;11.10;;;3.53;;
10517;SDS011;5307;42.548;22.968;2023-03-14T12:45:21;10.95;;;4.47;;
10517;SDS011;5307;42.548;22.968;2023-03-14T12:47:51;9.07;;;2.92;;
10517;SDS011;5307;42.548;22.968;2023-03-14T12:50:33;8.05;;;4.35;;
10517;SDS011;5307;42.548;22.968;2023-03-14T12:53:24;9.25;;;3.00;;
10517;SDS011;5307;42.548;22.968;2023-03-14T12:56:21;10.10;;;3.60;;
10517;SDS011;5307;42.548;22.968;2023-03-14T12:58:55;7.43;;;4.10;;
10517;SDS011;5307;42.548;22.968;2023-03-14T13:01:32;16.45;;;7.13;;
10517;SDS011;5307;42.548;22.968;2023-03-14T13:04:02;10.05;;;3.17;;
10517;SDS011;5307;42.548;22.968;2023-03-14T13:06:52;5.30;;;2.80;;
10517;SDS011;5307;42.548;22.968;2023-03-14T13:09:35;3.55;;;2.35;;
10517;SDS011;5307;42.548;22.968;2023-03-14T13:12:29;5.20;;;3.03;;
10517;SDS011;5307;42.548;22.968;2023-03-14T13:15:12;6.00;;;2.85;;
10517;SDS011;5307;42.548;22.968;2023-03-14T13:17:46;6.63;;;3.22;;
10517;SDS011;5307;42.548;22.968;2023-03-14T13:20:15;3.15;;;2.45;;
10517;SDS011;5307;42.548;22.968;2023-03-14T13:22:49;5.60;;;2.63;;
10517;SDS011;5307;42.548;22.968;2023-03-14T13:25:16;4.20;;;2.75;;
10517;SDS011;5307;42.548;22.968;2023-03-14T13:27:51;5.97;;;3.15;;
10517;SDS011;5307;42.548;22.968;2023-03-14T13:30:23;4.47;;;2.00;;
10517;SDS011;5307;42.548;22.968;2023-03-14T13:32:54;6.50;;;2.60;;
10517;SDS011;5307;42.548;22.968;2023-03-14T13:35:39;6.93;;;3.25;;
10517;SDS011;5307;42.548;22.968;2023-03-14T13:38:18;5.57;;;2.88;;
10517;SDS011;5307;42.548;22.968;2023-03-14T13:40:51;21.60;;;10.57;;
10517;SDS011;5307;42.548;22.968;2023-03-14T13:43:25;15.13;;;4.70;;
10517;SDS011;5307;42.548;22.968;2023-03-14T13:46:01;7.53;;;3.05;;
10517;SDS011;5307;42.548;22.968;2023-03-14T13:48:34;7.45;;;2.88;;
10517;SDS011;5307;42.548;22.968;2023-03-14T13:51:10;11.55;;;6.13;;
10517;SDS011;5307;42.548;22.968;2023-03-14T13:53:43;10.70;;;3.45;;
10517;SDS011;5307;42.548;22.968;2023-03-14T13:56:11;8.00;;;3.20;;
10517;SDS011;5307;42.548;22.968;2023-03-14T13:58:39;10.75;;;4.75;;
10517;SDS011;5307;42.548;22.968;2023-03-14T14:01:10;11.52;;;4.35;;
10517;SDS011;5307;42.548;22.968;2023-03-14T14:03:50;10.63;;;2.70;;
10517;SDS011;5307;42.548;22.968;2023-03-14T14:06:25;7.82;;;3.53;;
10517;SDS011;5307;42.548;22.968;2023-03-14T14:09:00;11.35;;;5.32;;
10517;SDS011;5307;42.548;22.968;2023-03-14T14:11:37;25.05;;;9.68;;
10517;SDS011;5307;42.548;22.968;2023-03-14T14:14:28;17.73;;;7.72;;
10517;SDS011;5307;42.548;22.968;2023-03-14T14:17:01;8.20;;;3.15;;
10517;SDS011;5307;42.548;22.968;2023-03-14T14:19:34;6.95;;;3.05;;
10517;SDS011;5307;42.548;22.968;2023-03-14T14:22:03;4.13;;;2.30;;
10517;SDS011;5307;42.548;22.968;2023-03-14T14:24:34;10.00;;;4.70;;
10517;SDS011;5307;42.548;22.968;2023-03-14T14:27:08;10.35;;;3.55;;
10517;SDS011;5307;42.548;22.968;2023-03-14T14:29:39;7.78;;;3.00;;
10517;SDS011;5307;42.548;22.968;2023-03-14T14:32:10;10.73;;;3.70;;
10517;SDS011;5307;42.548;22.968;2023-03-14T14:34:42;4.13;;;2.45;;
10517;SDS011;5307;42.548;22.968;2023-03-14T14:37:19;7.03;;;2.47;;
10517;SDS011;5307;42.548;22.968;2023-03-14T14:39:51;7.93;;;3.20;;
10517;SDS011;5307;42.548;22.968;2023-03-14T14:42:20;8.60;;;3.20;;
10517;SDS011;5307;42.548;22.968;2023-03-14T14:44:51;9.63;;;2.60;;
10517;SDS011;5307;42.548;22.968;2023-03-14T14:47:18;13.15;;;4.10;;
10517;SDS011;5307;42.548;22.968;2023-03-14T14:49:48;16.98;;;6.97;;
10517;SDS011;5307;42.548;22.968;2023-03-14T14:52:17;10.77;;;3.92;;
10517;SDS011;5307;42.548;22.968;2023-03-14T14:54:46;14.45;;;3.67;;